Weather at Bradley International Airport

Public forecast

Using degrees Fahrenheit for public forecast. Weather courtesy of forecast.io.

Current aviation weather report (METAR) for Bradley International Airport

Retrieved 2022/05/23 01:51 UTC (49 minutes ago):

KBDL 230151Z 35004KT 10SM -RA FEW060 BKN110 OVC140 22/19 A3001 RMK AO2 TSE32 SLP161 P0013 T02170194

Aviation forecast (TAF) for Bradley International Airport

Retrieved 2022-05-23 00:22 UTC (2 hours ago):

TAF KBDL 222320Z 2300/2406 28010G20KT P6SM TSRA BKN080CB FM230100 33006KT P6SM VCTS OVC090CB FM230200 33007KT P6SM SCT120 FM230900 34009KT P6SM BKN230 FM231400 35009KT P6SM SCT250 FM240200 36005KT P6SM BKN190